Auburn, WA

9:00 AM PDT on October 21, 2014 (GMT -0700)
Celery Ave | Change Station
CLOSE
Current Station
Personal Weather Station
Location: Algona, WA
Elevation: 66 ft
Nearby Weather Stations

Elev 66 ft 47.29 °N, 122.25 °W | Updated 4 minutes ago

Mostly Cloudy
Mostly Cloudy
55.0 °F
Feels Like 55.0 °F
N
0.0
Wind Variable Wind from SE
Gusts 2.0 mph

Today
High -- | Low -- °F
--% Chance of Precip.
Yesterday
High -- | Low -- °F
Precip. -- in
7:36 AM 6:10 PM
Waning Crescent, 5% visible
Pressure 29.93 in
Visibility 10.0 miles
Clouds Scattered Clouds 2500 ft
Mostly Cloudy 8500 ft
Mostly Cloudy 20000 ft
Dew Point 52 °F
Humidity 90%
Rainfall 0.06 in
Snow Depth Not available.
UV 0 out of 12
Pollen .40 out of 12
Air Quality Not available.
Flu Activity Sporadic
METAR KSEA 211553Z 17009KT 10SM SCT025 BKN085 BKN200 13/10 A2991 RMK AO2 SLP133 T01280100

More Conditions Fewer Conditions

Pressure 29.93 in
Visibility 10.0 miles
Clouds Scattered Clouds 2500 ft
Mostly Cloudy 8500 ft
Mostly Cloudy 20000 ft
Dew Point 52 °F
Humidity 90%
Rainfall 0.06 in
Snow Depth Not available.
UV 0 out of 12
Pollen .40 out of 12
Air Quality Not available.
Flu Activity Sporadic
METAR KSEA 211553Z 17009KT 10SM SCT025 BKN085 BKN200 13/10 A2991 RMK AO2 SLP133 T01280100

More Conditions Fewer Conditions

10-Day Weather Forecast

Almanac

Astronomy

Oct. 21, 2014 Rise Set
Actual Time 7:36 AM PDT 6:10 PM PDT
Civil Twilight 7:05 AM PDT 6:41 PM PDT
Nautical Twilight 6:29 AM PDT 7:17 PM PDT
Astronomical Twilight 5:53 AM PDT 7:52 PM PDT
Moon 5:17 AM PDT 5:13 PM PDT
Length of Visible Light 11h 36m
Length of Day
10h 33m
Tomorrow will be 3m 13s shorter.
Waning Crescent, 5% of the Moon is Illuminated
Today
Waning Crescent
Oct 23
New
Oct 30
First Quarter
Nov 6
Full
Nov 14
Last Quarter

Today's Extremes

State Highs State Lows

Community

WunderPhotos

Upload Photos

1,763,704 photos uploaded!

WunderBlogs® & News

Nearby

Air Quality

  Air Quality AQ Index Pollutant
Tuesday Good
PM2.5
Wednesday Good
PM2.5
Thursday Good
PM2.5
Friday Good
PM2.5
Saturday Good
PM2.5

Snow Depth

Station Depth Elevation
Mount Gardner 0 in 3000 ft
Meadows Pass 1 in 3500 ft
Olallie Meadows 1 in 3700 ft
Skookum Creek 0 in 3920 ft
Alpine Meadows 0 in 3500 ft

Earthquake Activity

City Distance Mag. Time & Date
No recent earthquake activity has been reported nearby.
Minimum magnitude displayed is 2.5.

Coastal Water Temperatures

Place Temperature
Port Townsend, WA 52.0 °F
Seattle, WA 55.0 °F
Friday Harbor, WA 51.1 °F
Tacoma, WA 54.0 °F

Nearby Weather Stations